createdAt,value
2019-03-02T00:00:22.164Z,13.00
2019-03-02T00:02:51.282Z,12.80
2019-03-02T00:05:20.859Z,12.13
2019-03-02T00:07:52.484Z,12.17
2019-03-02T00:10:24.145Z,11.67
2019-03-02T00:12:53.500Z,13.40
2019-03-02T00:15:22.996Z,12.17
2019-03-02T00:17:54.225Z,12.80
2019-03-02T00:20:24.078Z,12.73
2019-03-02T00:22:53.081Z,12.37
2019-03-02T00:25:22.151Z,12.57
2019-03-02T00:27:54.050Z,13.07
2019-03-02T00:30:22.521Z,14.03
2019-03-02T00:32:51.513Z,14.03
2019-03-02T00:35:26.056Z,12.63
2019-03-02T00:37:55.964Z,13.57
2019-03-02T00:40:30.198Z,13.30
2019-03-02T00:42:58.232Z,12.40
2019-03-02T00:45:27.798Z,11.43
2019-03-02T00:47:56.878Z,11.67
2019-03-02T00:50:25.938Z,11.03
2019-03-02T00:52:59.177Z,11.80
2019-03-02T00:55:31.582Z,11.60
2019-03-02T00:58:01.304Z,12.03
2019-03-02T01:00:30.390Z,12.30
2019-03-02T01:02:59.391Z,11.30
2019-03-02T01:05:28.478Z,11.80
2019-03-02T01:07:59.834Z,11.93
2019-03-02T01:10:28.996Z,12.23
2019-03-02T01:12:58.314Z,11.50
2019-03-02T01:15:30.293Z,11.93
2019-03-02T01:18:00.307Z,12.10
2019-03-02T01:20:29.931Z,12.33
2019-03-02T01:23:01.048Z,12.03
2019-03-02T01:25:30.119Z,11.37
2019-03-02T01:27:59.229Z,12.13
2019-03-02T01:30:29.951Z,12.67
2019-03-02T01:32:59.185Z,12.77
2019-03-02T01:35:28.250Z,12.20
2019-03-02T01:37:57.309Z,11.53
2019-03-02T01:40:26.390Z,11.67
2019-03-02T01:42:56.669Z,12.40
2019-03-02T01:45:27.679Z,11.87
2019-03-02T01:47:56.376Z,11.67
2019-03-02T01:50:25.379Z,12.37
2019-03-02T01:52:54.786Z,12.77
2019-03-02T01:55:23.824Z,12.80
2019-03-02T01:57:53.208Z,12.47
2019-03-02T02:00:30.173Z,18.33
2019-03-02T02:03:01.350Z,17.93
2019-03-02T02:05:32.071Z,17.23
2019-03-02T02:08:01.646Z,13.47
2019-03-02T02:10:30.639Z,14.60
2019-03-02T02:13:02.808Z,13.93
2019-03-02T02:15:30.329Z,12.90
2019-03-02T02:17:59.473Z,15.10
2019-03-02T02:20:28.348Z,14.90
2019-03-02T02:23:03.275Z,14.97
2019-03-02T02:25:32.628Z,13.80
2019-03-02T02:28:04.859Z,14.53
2019-03-02T02:30:33.983Z,14.43
2019-03-02T02:33:05.517Z,15.93
2019-03-02T02:35:39.280Z,14.87
2019-03-02T02:38:05.204Z,15.40
2019-03-02T02:40:34.302Z,14.37
2019-03-02T02:43:03.278Z,15.57
2019-03-02T02:45:32.351Z,15.53
2019-03-02T04:59:35.383Z,15.53
2019-03-02T05:02:04.441Z,15.23
2019-03-02T05:04:34.601Z,16.10
2019-03-02T05:07:03.481Z,15.37
2019-03-02T05:09:32.431Z,16.57
2019-03-02T05:12:01.404Z,16.77
2019-03-02T05:14:30.374Z,15.73
2019-03-02T05:17:03.396Z,17.00
2019-03-02T05:19:30.018Z,17.33
2019-03-02T05:21:59.036Z,16.53
2019-03-02T05:24:28.785Z,16.73
2019-03-02T05:26:57.784Z,19.00
2019-03-02T05:29:26.685Z,17.03
2019-03-02T05:31:55.541Z,16.63
2019-03-02T05:34:27.261Z,16.93
2019-03-02T05:36:59.753Z,15.27
2019-03-02T05:39:26.816Z,14.37
2019-03-02T05:41:55.826Z,14.40
2019-03-02T05:44:24.808Z,13.83
2019-03-02T05:46:53.764Z,13.90
2019-03-02T05:49:22.667Z,13.87
2019-03-02T05:51:51.609Z,13.63
2019-03-02T05:54:20.497Z,14.93
2019-03-02T05:56:49.521Z,13.97
2019-03-02T05:59:18.473Z,14.13
2019-03-02T06:01:47.358Z,14.70
2019-03-02T06:04:18.834Z,15.10
2019-03-02T06:06:47.097Z,15.17
2019-03-02T06:09:16.041Z,15.27
2019-03-02T06:11:45.014Z,14.73
2019-03-02T06:14:13.909Z,15.40
2019-03-02T06:16:42.781Z,15.27
2019-03-02T06:19:11.674Z,15.63
2019-03-02T06:21:42.799Z,16.50
2019-03-02T06:24:11.909Z,16.70
2019-03-02T06:26:40.934Z,16.07
2019-03-02T06:29:12.262Z,16.93
2019-03-02T06:31:41.221Z,16.53
2019-03-02T06:34:13.117Z,17.40
2019-03-02T06:36:44.693Z,18.03
2019-03-02T06:39:12.884Z,16.43
2019-03-02T06:41:42.968Z,17.83
2019-03-02T06:44:11.954Z,19.97
2019-03-02T06:46:40.944Z,18.43
2019-03-02T06:49:09.970Z,18.50
2019-03-02T06:51:38.938Z,18.83
2019-03-02T06:54:08.923Z,16.63
2019-03-02T06:56:39.530Z,18.53
2019-03-02T06:59:08.604Z,17.20
2019-03-02T07:01:37.521Z,17.53
2019-03-02T07:04:06.529Z,17.10
2019-03-02T07:06:36.412Z,16.27
2019-03-02T07:09:10.617Z,17.17
2019-03-02T07:11:40.386Z,17.47
2019-03-02T07:14:09.651Z,17.50
2019-03-02T07:16:38.630Z,17.53
2019-03-02T07:19:51.884Z,17.47
2019-03-02T07:22:20.345Z,16.73
2019-03-02T07:24:51.784Z,16.93
2019-03-02T07:27:21.646Z,17.73
2019-03-02T07:29:53.611Z,17.47
2019-03-02T07:32:21.209Z,17.37
2019-03-02T07:34:50.110Z,16.80
2019-03-02T07:37:19.011Z,17.13
2019-03-02T07:39:48.084Z,16.70
2019-03-02T07:42:17.075Z,17.23
2019-03-02T07:44:46.538Z,17.00
2019-03-02T07:47:20.701Z,17.60
2019-03-02T07:49:49.858Z,17.27
2019-03-02T07:52:19.185Z,18.43
2019-03-02T07:54:57.693Z,18.43
2019-03-02T07:57:18.770Z,17.53
2019-03-02T07:59:47.693Z,16.87
2019-03-02T08:02:16.589Z,15.07
2019-03-02T08:04:45.454Z,16.93
2019-03-02T08:07:14.384Z,17.23
2019-03-02T08:09:43.327Z,18.40
2019-03-02T08:12:12.273Z,17.03
2019-03-02T08:14:44.408Z,16.17
2019-03-02T08:17:13.439Z,17.50
2019-03-02T08:19:44.797Z,16.27
2019-03-02T08:22:13.354Z,16.87
2019-03-02T08:24:43.769Z,16.17
2019-03-02T08:27:13.681Z,17.53
2019-03-02T08:29:44.939Z,15.97
2019-03-02T08:32:13.816Z,17.17
2019-03-02T08:34:46.404Z,16.17
2019-03-02T08:37:16.587Z,16.63
2019-03-02T08:39:46.637Z,16.33
2019-03-02T08:42:18.572Z,16.03
2019-03-02T08:44:50.764Z,16.00
2019-03-02T08:47:20.241Z,15.77
2019-03-02T08:49:49.199Z,15.43
2019-03-02T08:52:18.274Z,16.00
2019-03-02T08:54:47.302Z,19.63
2019-03-02T08:57:19.601Z,15.07
2019-03-02T08:59:46.890Z,14.97
2019-03-02T09:02:15.871Z,15.17
2019-03-02T09:04:47.255Z,15.70
2019-03-02T09:07:15.445Z,15.10
2019-03-02T09:09:44.402Z,15.13
2019-03-02T09:12:13.436Z,14.67
2019-03-02T09:14:45.069Z,14.33
2019-03-02T09:17:14.033Z,15.67
2019-03-02T09:19:43.939Z,13.47
2019-03-02T09:22:12.794Z,14.57
2019-03-02T09:24:41.745Z,13.13
2019-03-02T09:27:10.768Z,13.13
2019-03-02T09:29:39.740Z,13.30
2019-03-02T09:32:10.931Z,12.87
2019-03-02T09:34:40.435Z,13.57
2019-03-02T09:37:11.148Z,13.37
2019-03-02T09:39:40.182Z,13.23
2019-03-02T09:42:09.066Z,12.57
2019-03-02T09:44:37.949Z,12.90
2019-03-02T09:47:08.994Z,11.90
2019-03-02T09:49:38.300Z,12.23
2019-03-02T09:52:09.702Z,11.70
2019-03-02T09:54:38.629Z,12.27
2019-03-02T09:57:07.924Z,11.70
2019-03-02T09:59:36.793Z,11.20
2019-03-02T10:02:05.801Z,11.60
2019-03-02T10:04:35.800Z,11.80
2019-03-02T10:07:05.440Z,10.30
2019-03-02T10:09:34.309Z,12.00
2019-03-02T10:12:09.967Z,12.33
2019-03-02T10:14:40.924Z,12.33
2019-03-02T10:17:10.003Z,11.03
2019-03-02T10:19:43.810Z,12.60
2019-03-02T10:22:13.888Z,11.73
2019-03-02T10:24:45.069Z,11.47
2019-03-02T10:27:17.122Z,11.50
2019-03-02T10:29:52.535Z,11.07
2019-03-02T10:32:42.121Z,10.90
2019-03-02T10:35:13.581Z,10.47
2019-03-02T10:37:44.908Z,11.17
2019-03-02T10:40:16.457Z,11.30
2019-03-02T10:42:47.688Z,11.03
2019-03-02T10:45:17.626Z,10.50
2019-03-02T10:47:47.277Z,9.80
2019-03-02T10:50:23.342Z,11.20
2019-03-02T10:52:51.649Z,11.40
2019-03-02T10:55:21.292Z,11.73
2019-03-02T10:58:10.424Z,10.83
2019-03-02T11:00:39.670Z,10.27
2019-03-02T11:06:07.533Z,9.80
2019-03-02T11:09:07.630Z,10.27
2019-03-02T11:11:48.452Z,9.40
2019-03-02T11:14:45.750Z,9.77
2019-03-02T11:17:36.830Z,10.10
2019-03-02T11:20:40.162Z,9.50
2019-03-02T11:26:36.398Z,9.80
2019-03-02T11:29:25.831Z,10.77
2019-03-02T11:32:21.495Z,11.23
2019-03-02T11:35:46.787Z,9.83
2019-03-02T11:38:23.793Z,10.00
2019-03-02T11:41:16.370Z,10.93
2019-03-02T11:44:02.944Z,10.20
2019-03-02T11:46:44.217Z,10.57
2019-03-02T11:49:30.140Z,9.70
2019-03-02T11:52:11.823Z,9.63
2019-03-02T11:54:47.875Z,11.03
2019-03-02T11:57:35.924Z,10.03
2019-03-02T12:00:24.070Z,9.50
2019-03-02T12:03:02.434Z,9.70
2019-03-02T12:05:50.776Z,9.70
2019-03-02T12:08:41.948Z,10.10
2019-03-02T12:11:25.018Z,9.97
2019-03-02T12:14:20.119Z,10.60
2019-03-02T12:17:16.409Z,9.63
2019-03-02T12:20:11.154Z,10.17
2019-03-02T12:22:50.902Z,9.50
2019-03-02T12:25:40.329Z,10.00
2019-03-02T12:28:28.181Z,9.60
2019-03-02T12:31:28.156Z,10.60
2019-03-02T12:34:13.504Z,9.90
2019-03-02T12:37:07.744Z,10.80
2019-03-02T12:39:51.376Z,9.33
2019-03-02T12:42:42.229Z,10.60
2019-03-02T12:45:33.735Z,10.70
2019-03-02T12:48:21.114Z,9.87
2019-03-02T12:51:13.190Z,9.23
2019-03-02T12:54:04.780Z,9.30
2019-03-02T12:56:53.233Z,10.53
2019-03-02T12:59:47.728Z,9.83
2019-03-02T13:02:51.289Z,9.70
2019-03-02T13:05:37.588Z,9.53
2019-03-02T13:08:28.771Z,10.50
2019-03-02T13:11:06.035Z,9.93
2019-03-02T13:13:44.854Z,9.63
2019-03-02T13:16:33.178Z,9.77
2019-03-02T13:19:26.804Z,10.50
2019-03-02T13:22:21.498Z,10.03
2019-03-02T13:25:30.216Z,10.63
2019-03-02T13:28:30.421Z,9.73
2019-03-02T13:31:20.001Z,10.53
2019-03-02T13:34:08.154Z,9.90
2019-03-02T13:36:57.525Z,10.17
2019-03-02T13:39:36.453Z,10.60
2019-03-02T13:42:24.565Z,10.50
2019-03-02T13:48:17.634Z,11.23
2019-03-02T13:50:58.023Z,11.23
2019-03-02T13:53:59.443Z,10.13
2019-03-02T13:56:56.594Z,10.90
2019-03-02T13:59:43.427Z,10.40
2019-03-02T14:02:21.641Z,11.30
2019-03-02T14:05:22.258Z,10.40
2019-03-02T14:08:08.358Z,10.07
2019-03-02T14:11:13.617Z,10.63
2019-03-02T14:14:08.518Z,10.53
2019-03-02T14:17:11.870Z,9.97
2019-03-02T14:19:59.272Z,9.60
2019-03-02T14:23:01.630Z,10.20
2019-03-02T14:25:38.627Z,12.07
2019-03-02T14:28:30.629Z,12.63
2019-03-02T14:31:22.561Z,10.27
2019-03-02T14:34:12.023Z,10.03
2019-03-02T14:36:59.158Z,12.07
2019-03-02T14:39:45.243Z,10.37
2019-03-02T14:42:34.734Z,10.03
2019-03-02T14:45:23.210Z,11.10
2019-03-02T14:48:17.050Z,15.63
2019-03-02T14:51:17.020Z,10.30
2019-03-02T14:53:51.234Z,10.47
2019-03-02T14:57:06.972Z,11.47
2019-03-02T14:59:58.101Z,10.23
2019-03-02T15:02:49.077Z,10.37
2019-03-02T15:05:53.165Z,11.07
2019-03-02T15:08:38.229Z,9.73
2019-03-02T15:11:17.890Z,11.53
2019-03-02T15:14:08.630Z,10.50
2019-03-02T15:16:55.653Z,12.07
2019-03-02T15:19:58.030Z,12.43
2019-03-02T15:22:44.722Z,10.53
2019-03-02T15:25:33.876Z,10.80
2019-03-02T15:28:37.590Z,11.60
2019-03-02T15:31:12.055Z,10.50
2019-03-02T15:33:54.686Z,11.00
2019-03-02T15:36:34.300Z,14.87
2019-03-02T15:39:27.270Z,13.03
2019-03-02T15:42:29.283Z,12.80
2019-03-02T15:45:04.480Z,10.03
2019-03-02T15:47:59.738Z,10.40
2019-03-02T15:50:51.283Z,11.17
2019-03-02T15:53:46.025Z,8.93
2019-03-02T15:56:34.988Z,8.93
2019-03-02T15:59:27.742Z,8.30
2019-03-02T16:02:54.556Z,8.03
2019-03-02T16:06:11.327Z,8.77
2019-03-02T16:10:00.856Z,8.10
2019-03-02T16:17:27.512Z,8.03
2019-03-02T16:20:21.409Z,8.63
2019-03-02T16:26:54.385Z,8.17
2019-03-02T16:33:40.639Z,8.57
2019-03-02T16:40:50.095Z,8.77
2019-03-02T16:44:35.966Z,9.10
2019-03-02T16:47:25.076Z,9.33
2019-03-02T16:54:20.942Z,12.53
2019-03-02T16:57:12.502Z,11.57
2019-03-02T17:00:05.139Z,12.27
2019-03-02T17:03:06.986Z,10.17
2019-03-02T17:05:50.396Z,9.40
2019-03-02T17:08:35.402Z,9.20
2019-03-02T17:11:24.074Z,9.77
2019-03-02T17:14:18.878Z,9.77
2019-03-02T17:17:07.954Z,7.97
2019-03-02T17:20:01.237Z,8.80
2019-03-02T17:22:49.406Z,8.40
2019-03-02T17:25:58.602Z,8.23
2019-03-02T17:28:38.999Z,9.77
2019-03-02T17:31:49.586Z,9.10
2019-03-02T17:35:07.788Z,12.53
2019-03-02T17:38:32.161Z,14.97
2019-03-02T17:41:18.735Z,10.00
2019-03-02T17:44:26.337Z,9.83
2019-03-02T17:47:22.962Z,7.80
2019-03-02T17:50:31.585Z,9.07
2019-03-02T17:53:22.956Z,9.43
2019-03-02T17:56:41.035Z,8.43
2019-03-02T17:59:35.369Z,8.13
2019-03-02T18:02:42.067Z,9.77
2019-03-02T18:05:39.515Z,9.37
2019-03-02T18:08:48.100Z,9.17
2019-03-02T18:11:40.134Z,9.63
2019-03-02T18:14:22.369Z,9.30
2019-03-02T18:17:04.020Z,9.20
2019-03-02T18:19:33.285Z,8.37
2019-03-02T18:22:02.229Z,8.37
2019-03-02T18:24:35.302Z,7.70
2019-03-02T18:29:55.468Z,8.13
2019-03-02T18:32:24.736Z,7.47
2019-03-02T18:34:56.875Z,7.80
2019-03-02T18:37:26.512Z,7.97
2019-03-02T18:40:02.398Z,7.97
2019-03-02T18:42:31.863Z,7.97
2019-03-02T18:45:04.416Z,7.70
2019-03-02T18:47:32.672Z,8.00
2019-03-02T18:50:28.331Z,8.13
2019-03-02T18:53:02.717Z,8.40
2019-03-02T18:55:32.377Z,7.30
2019-03-02T18:58:01.281Z,6.90
2019-03-02T19:00:33.599Z,7.77
2019-03-02T19:03:02.576Z,7.83
2019-03-02T19:05:31.605Z,7.13
2019-03-02T19:08:04.310Z,7.63
2019-03-02T19:10:34.808Z,7.97
2019-03-02T19:13:08.351Z,8.33
2019-03-02T19:15:39.038Z,7.20
2019-03-02T19:18:08.116Z,7.37
2019-03-02T19:20:37.573Z,7.43
2019-03-02T19:23:10.799Z,7.40
2019-03-02T19:25:56.677Z,8.33
2019-03-02T19:28:27.981Z,8.00
2019-03-02T19:30:58.388Z,7.73
2019-03-02T19:33:27.375Z,8.23
2019-03-02T19:36:06.814Z,8.30
2019-03-02T19:38:37.858Z,9.03
2019-03-02T19:41:15.152Z,8.60
2019-03-02T19:43:44.115Z,8.47
2019-03-02T19:46:13.172Z,8.63
2019-03-02T19:48:43.162Z,8.40
2019-03-02T19:51:12.112Z,9.30
2019-03-02T19:53:46.985Z,8.43
2019-03-02T19:56:16.548Z,8.93
2019-03-02T19:58:45.746Z,8.17
2019-03-02T20:01:16.801Z,9.20
2019-03-02T20:03:46.095Z,8.40
2019-03-02T20:06:15.095Z,8.70
2019-03-02T20:08:50.061Z,9.00
2019-03-02T20:11:21.557Z,8.17
2019-03-02T20:14:08.052Z,9.23
2019-03-02T20:16:41.463Z,9.67
2019-03-02T20:19:13.701Z,8.43
2019-03-02T20:21:45.946Z,9.13
2019-03-02T20:24:14.937Z,8.43
2019-03-02T20:26:44.390Z,9.30
2019-03-02T20:29:14.249Z,10.27
2019-03-02T20:31:51.697Z,10.37
2019-03-02T20:34:21.181Z,13.20
2019-03-02T20:36:50.238Z,12.13
2019-03-02T20:39:20.327Z,12.63
2019-03-02T20:41:49.360Z,12.57
2019-03-02T20:44:18.811Z,12.80
2019-03-02T20:46:48.490Z,13.00
2019-03-02T20:49:19.962Z,11.50
2019-03-02T20:51:50.741Z,11.67
2019-03-02T20:54:19.834Z,11.73
2019-03-02T20:56:48.890Z,10.83
2019-03-02T20:59:17.880Z,10.97
2019-03-02T21:01:47.990Z,14.63
2019-03-02T21:04:16.898Z,11.40
2019-03-02T21:06:48.163Z,11.13
2019-03-02T21:09:19.229Z,10.80
2019-03-02T21:11:52.713Z,10.00
2019-03-02T21:14:24.243Z,9.90
2019-03-02T21:16:55.093Z,9.30
2019-03-02T21:19:27.841Z,10.87
2019-03-02T21:21:56.834Z,10.03
2019-03-02T21:24:26.006Z,9.47
2019-03-02T21:26:54.970Z,9.80
2019-03-02T21:29:28.686Z,8.67
2019-03-02T21:31:58.409Z,8.87
2019-03-02T21:34:31.491Z,10.50
2019-03-02T21:37:03.095Z,12.87
2019-03-02T21:39:32.399Z,8.73
2019-03-02T21:42:05.423Z,8.67
2019-03-02T21:44:34.483Z,8.67
2019-03-02T21:47:03.773Z,9.00
2019-03-02T21:49:33.922Z,7.57
2019-03-02T21:52:03.141Z,7.43
2019-03-02T21:54:32.609Z,8.13
2019-03-02T21:57:01.657Z,8.10
2019-03-02T21:59:30.674Z,8.43
2019-03-02T22:01:59.745Z,8.23
2019-03-02T22:04:28.636Z,9.87
2019-03-02T22:06:58.647Z,8.17
2019-03-02T22:09:30.173Z,9.30
2019-03-02T22:12:01.503Z,8.07
2019-03-02T22:14:31.741Z,7.23
2019-03-02T22:17:02.275Z,6.60
2019-03-02T22:19:31.224Z,7.50
2019-03-02T22:22:00.172Z,6.33
2019-03-02T22:24:29.153Z,7.30
2019-03-02T22:26:58.625Z,9.07
2019-03-02T22:29:33.226Z,7.23
2019-03-02T22:32:02.196Z,6.83
2019-03-02T22:34:32.111Z,6.60
2019-03-02T22:37:01.021Z,6.37
2019-03-02T22:39:29.982Z,6.93
2019-03-02T22:41:58.936Z,6.53
2019-03-02T22:44:27.845Z,7.70
2019-03-02T22:46:57.177Z,5.60
2019-03-02T22:49:26.082Z,6.00
2019-03-02T22:51:54.988Z,6.73
2019-03-02T22:54:23.890Z,6.00
2019-03-02T22:56:53.060Z,6.60
2019-03-02T22:59:24.310Z,6.70
2019-03-02T23:02:04.653Z,5.77
2019-03-02T23:04:33.676Z,5.93
2019-03-02T23:07:02.598Z,5.77
2019-03-02T23:09:31.485Z,5.40
2019-03-02T23:12:00.651Z,6.17
2019-03-02T23:14:31.922Z,5.73
2019-03-02T23:17:02.562Z,4.83
2019-03-02T23:19:31.584Z,5.67
2019-03-02T23:22:01.628Z,5.33
2019-03-02T23:24:30.574Z,6.27
2019-03-02T23:26:59.443Z,5.63
2019-03-02T23:29:28.316Z,5.47
2019-03-02T23:31:57.424Z,5.20
2019-03-02T23:34:26.819Z,6.23
2019-03-02T23:36:56.018Z,4.70
2019-03-02T23:39:24.899Z,5.33
2019-03-02T23:41:54.714Z,5.73
2019-03-02T23:44:23.604Z,8.07
2019-03-02T23:46:52.620Z,8.00
2019-03-02T23:49:21.611Z,17.77
2019-03-02T23:51:50.587Z,10.93
2019-03-02T23:54:19.463Z,8.70
2019-03-02T23:56:48.434Z,6.40
2019-03-02T23:59:18.552Z,6.73
